Time;durP1;ratioP1;P1;durP2;ratioP2;P2;SDS_P1;SDS_P2;PMS_P1;PMS_P2;Temp;Humidity;BMP_temperature;BMP_pressure;BME280_temperature;BME280_humidity;BME280_pressure;Samples;Min_cycle;Max_cycle;Signal;HPM_P1;HPM_P2
2022/03/06 00:00:31;;;;;;;;;92.75;79.25;;;;;9.39;64.56;101240.00;5054792;28;45966;-59
2022/03/06 00:02:57;;;;;;;;;90.75;77.50;;;;;9.39;64.25;101235.63;5054594;28;45439;-58
2022/03/06 00:05:22;;;;;;;;;89.00;74.50;;;;;9.39;63.75;101232.13;5056530;28;45362;-59
2022/03/06 00:07:47;;;;;;;;;92.00;79.75;;;;;9.37;64.31;101233.91;5058231;28;45367;-59
2022/03/06 00:10:13;;;;;;;;;93.75;81.25;;;;;9.36;63.74;101235.69;5057919;28;45496;-62
2022/03/06 00:12:38;;;;;;;;;88.00;77.75;;;;;9.33;63.73;101235.75;5058328;28;45399;-58
2022/03/06 00:15:04;;;;;;;;;88.75;73.50;;;;;9.38;63.73;101233.03;5058266;28;45516;-58
2022/03/06 00:17:29;;;;;;;;;91.75;78.25;;;;;9.34;63.87;101233.97;5058335;28;45311;-59
2022/03/06 00:19:55;;;;;;;;;89.00;73.25;;;;;9.31;63.67;101240.16;5058092;28;45482;-58
2022/03/06 00:22:20;;;;;;;;;94.00;80.00;;;;;9.22;63.83;101238.59;5058009;28;48207;-58
2022/03/06 00:24:46;;;;;;;;;95.00;79.75;;;;;9.17;63.58;101237.81;5058067;28;45487;-57
2022/03/06 00:27:11;;;;;;;;;90.50;73.50;;;;;9.18;63.48;101241.28;5057919;28;45775;-59
2022/03/06 00:29:36;;;;;;;;;90.00;75.00;;;;;9.14;63.46;101239.63;5057906;28;45588;-59
2022/03/06 00:32:03;;;;;;;;;92.00;78.25;;;;;9.14;63.47;101235.25;5056717;28;45653;-59
2022/03/06 00:34:28;;;;;;;;;90.00;76.25;;;;;9.17;63.55;101244.81;5058142;28;45479;-59
2022/03/06 00:36:53;;;;;;;;;86.50;73.25;;;;;9.11;62.77;101243.19;5057948;28;45413;-59
2022/03/06 00:39:19;;;;;;;;;87.00;73.25;;;;;9.03;63.08;101250.34;5057704;28;46022;-59
2022/03/06 00:41:44;;;;;;;;;87.25;73.00;;;;;9.03;62.49;101240.69;5057871;28;45502;-59
2022/03/06 00:44:09;;;;;;;;;88.00;71.25;;;;;9.09;62.78;101246.72;5058086;28;46104;-59
2022/03/06 00:46:35;;;;;;;;;92.00;79.50;;;;;9.06;62.42;101240.63;5057745;28;45632;-57
2022/03/06 00:49:01;;;;;;;;;89.25;70.25;;;;;9.02;61.85;101233.69;5057645;28;46116;-58
2022/03/06 00:51:27;;;;;;;;;85.50;69.00;;;;;8.93;61.60;101241.75;5057695;28;45510;-58
2022/03/06 00:53:53;;;;;;;;;88.00;70.50;;;;;8.96;61.82;101236.44;5057676;28;45379;-59
2022/03/06 00:56:18;;;;;;;;;88.25;71.00;;;;;8.98;61.66;101245.16;5057604;28;45629;-58
2022/03/06 00:58:43;;;;;;;;;86.25;68.75;;;;;8.95;61.35;101232.09;5057788;28;45414;-57
2022/03/06 01:01:09;;;;;;;;;72.00;55.25;;;;;8.95;61.14;101234.72;5057729;28;45440;-59
2022/03/06 01:03:34;;;;;;;;;79.00;62.00;;;;;9.00;61.05;101242.50;5057710;28;45635;-59
2022/03/06 01:06:00;;;;;;;;;85.00;69.00;;;;;8.91;60.52;101248.78;5057777;28;45304;-59
2022/03/06 01:08:26;;;;;;;;;83.75;66.25;;;;;8.93;60.49;101243.53;5057362;28;45406;-59
2022/03/06 01:10:52;;;;;;;;;88.25;67.50;;;;;8.84;59.56;101250.66;5057226;28;45421;-57
2022/03/06 01:13:20;;;;;;;;;82.50;65.00;;;;;8.90;59.46;101252.31;5057699;28;45433;-58
2022/03/06 01:15:45;;;;;;;;;84.75;68.75;;;;;8.84;59.56;101248.03;5057639;28;45635;-59
2022/03/06 01:18:11;;;;;;;;;83.25;66.00;;;;;8.85;59.35;101249.75;5057328;28;45530;-57
2022/03/06 01:20:38;;;;;;;;;84.75;64.75;;;;;8.76;58.49;101243.81;5057281;28;45365;-59
2022/03/06 01:23:04;;;;;;;;;81.00;64.00;;;;;8.69;58.86;101253.53;5057364;28;45392;-58
2022/03/06 01:25:30;;;;;;;;;82.25;63.00;;;;;8.65;59.05;101244.00;5057649;28;45625;-59
2022/03/06 01:27:56;;;;;;;;;79.00;64.00;;;;;8.75;58.79;101248.19;5057144;28;46280;-59
2022/03/06 01:30:22;;;;;;;;;86.75;69.50;;;;;8.73;58.99;101246.47;5057205;28;45548;-58
2022/03/06 01:32:49;;;;;;;;;86.25;68.00;;;;;8.69;58.94;101237.81;5057568;28;45501;-58
2022/03/06 01:35:14;;;;;;;;;81.00;62.75;;;;;8.71;58.15;101241.28;5057357;28;45433;-58
2022/03/06 01:37:40;;;;;;;;;88.75;67.50;;;;;8.68;57.95;101245.69;5055780;28;45688;-58
2022/03/06 01:40:07;;;;;;;;;85.25;69.00;;;;;8.68;58.38;101237.81;5057224;28;45465;-58
2022/03/06 01:42:33;;;;;;;;;87.00;71.00;;;;;8.58;57.52;101237.13;5057089;28;45316;-59
2022/03/06 01:44:58;;;;;;;;;87.50;71.00;;;;;8.56;58.28;101242.38;5057088;28;45516;-59
2022/03/06 01:47:34;;;;;;;;;84.75;64.00;;;;;8.53;57.98;101239.81;5056831;28;45884;-58
2022/03/06 01:50:00;;;;;;;;;85.00;66.50;;;;;8.49;57.38;101232.03;5057025;28;45422;-58
2022/03/06 01:52:26;;;;;;;;;82.00;66.50;;;;;8.50;57.07;101239.00;5057048;28;45524;-60
2022/03/06 01:54:51;;;;;;;;;79.50;61.75;;;;;8.36;56.85;101245.31;5056996;28;45977;-60
2022/03/06 01:57:16;;;;;;;;;85.25;66.25;;;;;8.29;57.71;101253.28;5056692;28;45498;-59
2022/03/06 01:59:42;;;;;;;;;83.25;64.75;;;;;8.16;57.44;101239.50;5056735;28;45504;-58
2022/03/06 02:02:07;;;;;;;;;83.75;64.25;;;;;8.13;57.92;101240.41;5056987;28;45530;-60
2022/03/06 02:04:33;;;;;;;;;82.00;64.50;;;;;8.21;57.86;101247.31;5056676;28;45549;-59
2022/03/06 02:06:59;;;;;;;;;81.00;64.00;;;;;8.25;57.77;101254.22;5056602;28;45480;-59
2022/03/06 02:09:25;;;;;;;;;80.50;62.00;;;;;8.27;57.63;101258.53;5056752;28;45449;-58
2022/03/06 02:14:34;;;;;;;;;82.50;65.00;;;;;8.06;57.19;101248.38;5056644;28;45527;-57
2022/03/06 02:17:00;;;;;;;;;78.50;61.50;;;;;8.00;57.16;101246.72;5056567;28;46133;-59
2022/03/06 02:19:26;;;;;;;;;83.75;63.50;;;;;7.92;57.04;101248.56;5056534;28;45493;-59
2022/03/06 02:21:51;;;;;;;;;85.25;64.00;;;;;7.87;56.71;101253.00;5056613;28;45573;-59
2022/03/06 02:24:16;;;;;;;;;82.25;64.75;;;;;7.90;56.77;101250.38;5056817;28;45513;-58
2022/03/06 02:26:41;;;;;;;;;82.00;64.00;;;;;7.87;56.71;101248.66;5056352;28;46161;-59
2022/03/06 02:29:07;;;;;;;;;73.25;57.75;;;;;7.85;57.01;101246.94;5055785;28;45455;-59
2022/03/06 02:31:33;;;;;;;;;78.50;64.00;;;;;7.89;56.55;101253.88;5056497;28;45434;-58
2022/03/06 02:33:58;;;;;;;;;82.25;63.75;;;;;7.90;56.32;101247.75;5056299;28;45393;-58
2022/03/06 02:36:24;;;;;;;;;79.50;64.25;;;;;7.89;56.17;101248.63;5056216;28;45766;-58
2022/03/06 02:38:50;;;;;;;;;80.00;63.25;;;;;7.83;56.50;101248.72;5056278;28;45408;-60
2022/03/06 02:41:15;;;;;;;;;78.00;62.25;;;;;7.83;56.64;101249.56;5056314;28;45534;-58
2022/03/06 02:43:40;;;;;;;;;75.75;61.25;;;;;7.85;56.46;101247.81;5054918;28;45483;-59
2022/03/06 02:46:06;;;;;;;;;83.25;65.00;;;;;7.86;56.70;101243.44;5055997;28;45398;-60
2022/03/06 02:48:31;;;;;;;;;81.75;63.50;;;;;7.92;56.33;101238.97;5055933;28;45356;-58
2022/03/06 02:50:56;;;;;;;;;78.50;64.25;;;;;7.95;56.52;101238.94;5055937;28;45450;-59
2022/03/06 02:53:23;;;;;;;;;79.75;64.25;;;;;7.93;56.30;101230.25;5055972;28;45652;-59
2022/03/06 02:55:48;;;;;;;;;84.75;67.00;;;;;8.01;56.31;101243.22;5055909;28;45441;-58
2022/03/06 02:58:13;;;;;;;;;81.00;64.50;;;;;7.93;55.85;101232.84;5055947;28;45421;-58
2022/03/06 03:00:39;;;;;;;;;82.25;64.25;;;;;7.91;56.30;101246.84;5055914;28;45387;-59
2022/03/06 03:03:04;;;;;;;;;77.75;63.00;;;;;7.83;56.38;101248.72;5055826;28;45390;-58
2022/03/06 03:05:30;;;;;;;;;83.50;63.75;;;;;7.83;56.47;101254.81;5055637;28;45440;-59
2022/03/06 03:07:55;;;;;;;;;76.25;61.25;;;;;7.84;56.37;101253.91;5055805;28;45511;-59
2022/03/06 03:10:23;;;;;;;;;83.25;65.25;;;;;7.82;55.91;101246.97;5055443;28;45408;-58
2022/03/06 03:12:49;;;;;;;;;79.25;61.25;;;;;7.80;55.82;101249.63;5055858;28;45390;-60
2022/03/06 03:15:15;;;;;;;;;77.75;61.75;;;;;7.66;56.08;101255.03;5055443;28;45331;-57
2022/03/06 03:17:41;;;;;;;;;75.25;59.00;;;;;7.50;56.17;101246.50;5055614;28;45459;-59
2022/03/06 03:20:08;;;;;;;;;77.25;62.00;;;;;7.38;56.62;101241.41;5055596;28;45364;-58
2022/03/06 03:22:34;;;;;;;;;76.50;61.75;;;;;7.40;56.56;101252.75;5055553;28;45387;-59
2022/03/06 03:24:59;;;;;;;;;77.50;62.50;;;;;7.44;56.46;101245.72;5055224;28;45576;-59
2022/03/06 03:27:24;;;;;;;;;81.50;64.75;;;;;7.47;56.45;101243.09;5055468;28;45451;-60
2022/03/06 03:29:50;;;;;;;;;79.75;63.00;;;;;7.48;56.34;101243.03;5055703;28;45860;-58
2022/03/06 03:32:15;;;;;;;;;82.50;65.00;;;;;7.57;56.12;101252.53;5055543;28;45443;-59
2022/03/06 03:34:41;;;;;;;;;77.00;59.75;;;;;7.52;55.89;101250.00;5055201;28;45436;-59
2022/03/06 03:37:06;;;;;;;;;78.75;64.25;;;;;7.54;55.85;101257.81;5055376;28;45554;-58
2022/03/06 03:39:31;;;;;;;;;78.00;61.75;;;;;7.46;56.21;101257.03;5054447;28;45425;-58
2022/03/06 03:41:57;;;;;;;;;82.50;64.50;;;;;7.45;55.62;101260.53;5055428;28;45387;-58
2022/03/06 03:44:22;;;;;;;;;80.00;64.00;;;;;7.36;55.71;101263.25;5054995;28;45421;-59
2022/03/06 03:46:48;;;;;;;;;86.50;65.50;;;;;7.43;56.17;101268.41;5055305;28;45431;-59
2022/03/06 03:49:16;;;;;;;;;83.25;64.00;;;;;7.45;55.75;101265.78;5054711;28;45471;-57
2022/03/06 03:51:42;;;;;;;;;81.75;64.50;;;;;7.45;56.52;101273.63;5075619;27;45676;-59
2022/03/06 03:54:08;;;;;;;;;77.50;62.50;;;;;7.43;56.04;101273.63;5075232;28;46191;-60
2022/03/06 03:56:33;;;;;;;;;83.50;63.50;;;;;7.41;56.33;101269.31;5074062;28;45482;-58
2022/03/06 03:58:58;;;;;;;;;80.00;63.50;;;;;7.32;55.92;101267.66;5075439;28;45692;-60
2022/03/06 04:01:24;;;;;;;;;80.25;62.25;;;;;7.17;56.41;101273.91;5074011;28;45355;-59
2022/03/06 04:03:49;;;;;;;;;78.75;62.00;;;;;7.22;56.25;101279.97;5074885;28;45450;-59
2022/03/06 04:06:14;;;;;;;;;80.00;64.25;;;;;7.17;56.87;101273.91;5074992;27;45505;-59
2022/03/06 04:08:40;;;;;;;;;81.25;62.50;;;;;7.09;57.07;101280.97;5075336;28;45434;-60
2022/03/06 04:11:06;;;;;;;;;82.50;64.25;;;;;7.05;56.47;101284.50;5074957;28;45566;-61
2022/03/06 04:13:31;;;;;;;;;78.25;63.25;;;;;6.99;57.35;101276.75;5075045;27;45892;-59
2022/03/06 04:15:56;;;;;;;;;79.00;63.50;;;;;6.92;57.14;101288.13;5075130;28;45410;-59
2022/03/06 04:18:22;;;;;;;;;78.75;63.75;;;;;6.81;57.31;101286.47;5075133;28;45354;-60
2022/03/06 04:20:47;;;;;;;;;77.00;61.50;;;;;6.86;57.64;101291.66;5075191;28;45353;-60
2022/03/06 04:23:13;;;;;;;;;78.50;63.75;;;;;6.89;57.78;101298.63;5074884;28;45450;-58
2022/03/06 04:25:40;;;;;;;;;80.25;65.00;;;;;6.85;57.24;101303.00;5074913;28;45450;-58
2022/03/06 04:28:06;;;;;;;;;78.50;62.75;;;;;6.84;57.83;101306.50;5075144;28;45524;-60
2022/03/06 04:30:31;;;;;;;;;78.75;64.75;;;;;6.75;58.15;101303.97;5074912;28;45429;-59
2022/03/06 04:32:57;;;;;;;;;80.75;62.75;;;;;6.77;57.95;101302.19;5073318;28;46607;-58
2022/03/06 04:35:22;;;;;;;;;79.75;62.75;;;;;6.69;58.21;101297.03;5074790;28;45536;-59
2022/03/06 04:37:47;;;;;;;;;87.25;67.00;;;;;6.76;57.85;101293.47;5075289;28;45425;-59
2022/03/06 04:40:13;;;;;;;;;85.00;65.75;;;;;6.64;57.84;101298.81;5074866;28;45491;-58
2022/03/06 04:42:39;;;;;;;;;84.00;65.50;;;;;6.69;58.12;101304.00;5073259;28;47074;-58
2022/03/06 04:45:05;;;;;;;;;82.00;64.25;;;;;6.76;58.28;101310.91;5074668;28;45513;-59
2022/03/06 04:47:30;;;;;;;;;80.25;64.00;;;;;6.72;58.20;101307.47;5074870;28;45460;-59
2022/03/06 04:49:56;;;;;;;;;84.75;66.75;;;;;6.67;58.30;101313.63;5074970;28;45386;-58
2022/03/06 04:52:21;;;;;;;;;82.25;64.00;;;;;6.59;58.47;101316.28;5077544;28;45532;-60
2022/03/06 04:54:47;;;;;;;;;83.00;65.00;;;;;6.56;58.43;101314.56;5078076;27;45336;-58
2022/03/06 04:57:14;;;;;;;;;80.75;64.00;;;;;6.51;58.74;101323.31;5078101;27;45436;-58
2022/03/06 04:59:39;;;;;;;;;84.50;66.00;;;;;6.43;58.73;101310.31;5078083;28;45515;-59
2022/03/06 05:02:05;;;;;;;;;79.25;64.75;;;;;6.48;58.78;101307.66;5077922;28;45400;-59
2022/03/06 05:04:30;;;;;;;;;76.00;60.75;;;;;6.48;58.93;101310.28;5077794;28;45327;-58
2022/03/06 05:06:56;;;;;;;;;78.25;61.50;;;;;6.46;58.72;101312.88;5078012;28;45362;-58
2022/03/06 05:09:21;;;;;;;;;85.75;64.75;;;;;6.46;59.15;101306.81;5078119;28;45497;-59
2022/03/06 05:11:46;;;;;;;;;80.00;64.50;;;;;6.46;58.89;101312.03;5077483;27;45367;-60
2022/03/06 05:14:12;;;;;;;;;80.00;63.25;;;;;6.52;58.93;101314.59;5077772;28;45515;-60
2022/03/06 05:16:37;;;;;;;;;85.75;66.25;;;;;6.53;58.53;101316.31;5076436;28;45528;-59
2022/03/06 05:19:02;;;;;;;;;77.75;60.75;;;;;6.52;58.99;101315.44;5077830;28;45389;-60
2022/03/06 05:21:28;;;;;;;;;82.25;65.25;;;;;6.62;58.24;101321.50;5077520;28;45921;-58
2022/03/06 05:23:53;;;;;;;;;81.50;65.50;;;;;6.60;58.29;101318.88;5077610;28;45433;-59
2022/03/06 05:26:18;;;;;;;;;86.50;66.75;;;;;6.56;58.48;101318.94;5077841;28;45413;-60
2022/03/06 05:28:44;;;;;;;;;83.00;64.25;;;;;6.51;58.45;101324.19;5077589;28;45667;-58
2022/03/06 05:31:10;;;;;;;;;74.75;59.00;;;;;6.53;58.76;101324.16;5077462;27;45419;-59
2022/03/06 05:33:35;;;;;;;;;79.75;64.75;;;;;6.54;58.42;101328.53;5077569;28;45458;-59
2022/03/06 05:36:01;;;;;;;;;80.00;64.00;;;;;6.52;58.43;101336.34;5077623;28;45417;-60
2022/03/06 05:38:26;;;;;;;;;82.25;65.50;;;;;6.54;58.46;101328.53;5077396;27;45541;-59
2022/03/06 05:40:52;;;;;;;;;85.75;65.75;;;;;6.48;58.40;101324.19;5077276;28;45426;-58
2022/03/06 05:43:17;;;;;;;;;85.50;66.75;;;;;6.45;58.79;101333.78;5077141;28;45408;-60
2022/03/06 05:45:44;;;;;;;;;79.75;64.00;;;;;6.41;58.62;101330.34;5077509;28;45365;-58
2022/03/06 05:48:10;;;;;;;;;84.25;67.50;;;;;6.41;59.13;101330.34;5077422;28;45386;-58
2022/03/06 05:50:36;;;;;;;;;79.25;64.25;;;;;6.42;59.00;101329.44;5077094;28;46112;-58
2022/03/06 05:53:01;;;;;;;;;79.50;63.75;;;;;6.41;58.62;101333.81;5077087;28;45562;-59
2022/03/06 05:55:30;;;;;;;;;79.75;63.50;;;;;6.34;58.92;101333.84;5077275;28;45466;-60
2022/03/06 05:57:55;;;;;;;;;85.25;65.50;;;;;6.24;58.95;101340.03;5077320;27;45506;-59
2022/03/06 06:00:21;;;;;;;;;82.75;65.75;;;;;6.12;59.65;101343.56;5077043;27;46275;-58
2022/03/06 06:02:47;;;;;;;;;78.00;61.50;;;;;6.16;59.44;101342.69;5076175;28;45384;-59
2022/03/06 06:05:15;;;;;;;;;83.75;65.25;;;;;6.07;59.61;101348.81;5076983;28;45466;-59
2022/03/06 06:07:40;;;;;;;;;89.75;70.50;;;;;6.07;59.53;101351.44;5076976;27;45465;-59
2022/03/06 06:10:07;;;;;;;;;80.00;62.25;;;;;6.06;59.54;101346.22;5076489;28;46026;-59
2022/03/06 06:12:32;;;;;;;;;82.50;65.00;;;;;6.09;59.62;101347.06;5076891;28;45623;-58
2022/03/06 06:14:58;;;;;;;;;78.50;62.00;;;;;5.95;59.74;101349.72;5077001;27;45512;-59
2022/03/06 06:17:23;;;;;;;;;82.75;66.00;;;;;5.92;59.88;101346.25;5076903;27;45644;-58
2022/03/06 06:19:48;;;;;;;;;83.00;65.25;;;;;5.93;59.97;101348.84;5076473;28;45562;-59
2022/03/06 06:22:14;;;;;;;;;85.75;66.75;;;;;5.81;60.35;101348.91;5075483;28;45452;-59
2022/03/06 06:24:39;;;;;;;;;84.50;66.75;;;;;5.80;60.79;101357.56;5076604;28;45440;-59
2022/03/06 06:27:04;;;;;;;;;84.75;65.75;;;;;5.76;60.42;101361.09;5076395;28;45623;-59
2022/03/06 06:29:30;;;;;;;;;85.75;67.00;;;;;5.79;60.44;101358.47;5076355;27;46083;-58
2022/03/06 06:31:56;;;;;;;;;80.50;64.00;;;;;5.83;60.14;101356.69;5076281;28;45418;-58
2022/03/06 06:34:21;;;;;;;;;80.00;65.25;;;;;5.88;60.31;101360.16;5076510;28;45455;-59
2022/03/06 06:36:47;;;;;;;;;83.50;65.50;;;;;5.90;59.98;101354.06;5076395;28;45543;-59
2022/03/06 06:39:13;;;;;;;;;84.25;66.50;;;;;5.75;60.55;101367.19;5076113;27;46788;-59
2022/03/06 06:41:40;;;;;;;;;89.50;69.75;;;;;5.75;60.39;101369.81;5076188;28;45406;-60
2022/03/06 06:44:06;;;;;;;;;86.00;66.75;;;;;5.81;60.00;101364.56;5076367;27;45382;-59
2022/03/06 06:46:32;;;;;;;;;88.25;66.25;;;;;5.84;60.27;101367.16;5076436;27;45367;-61
2022/03/06 06:48:58;;;;;;;;;85.25;66.75;;;;;5.92;60.31;101373.22;5075957;28;46167;-62
2022/03/06 06:51:23;;;;;;;;;89.50;68.00;;;;;5.98;59.72;101373.22;5076002;28;45476;-60
2022/03/06 06:53:48;;;;;;;;;87.75;69.50;;;;;6.08;59.48;101376.66;5076195;28;45503;-60
2022/03/06 06:56:14;;;;;;;;;86.75;68.00;;;;;5.98;59.52;101381.03;5076003;28;45372;-59
2022/03/06 06:58:39;;;;;;;;;79.25;62.25;;;;;5.87;59.11;101382.78;5076008;28;45537;-60
2022/03/06 07:01:05;;;;;;;;;84.50;67.25;;;;;5.86;59.73;101386.28;5075916;28;45481;-60
2022/03/06 07:03:31;;;;;;;;;88.75;69.00;;;;;5.90;59.31;101377.56;5076241;27;45487;-58
2022/03/06 07:05:57;;;;;;;;;85.50;66.75;;;;;5.88;59.86;101383.66;5076058;28;45384;-59
2022/03/06 07:08:23;;;;;;;;;82.75;66.00;;;;;5.97;59.53;101386.28;5075773;28;46044;-58
2022/03/06 07:10:48;;;;;;;;;86.75;67.00;;;;;6.06;59.65;101388.84;5075876;28;45394;-58
2022/03/06 07:13:13;;;;;;;;;90.00;67.75;;;;;6.10;59.14;101398.44;5076114;28;45412;-59
2022/03/06 07:15:39;;;;;;;;;89.50;68.00;;;;;6.11;59.12;101388.84;5075809;28;45452;-57
2022/03/06 07:18:04;;;;;;;;;86.00;67.00;;;;;6.18;58.91;101396.66;5074300;27;45525;-59
2022/03/06 07:20:30;;;;;;;;;88.75;69.00;;;;;6.11;58.98;101396.69;5075664;27;45444;-60
2022/03/06 07:22:55;;;;;;;;;87.25;73.00;;;;;6.21;58.56;101401.00;5075982;27;45413;-59
2022/03/06 07:25:21;;;;;;;;;88.50;71.25;;;;;6.24;58.37;101402.72;5075641;28;45374;-59
2022/03/06 07:27:47;;;;;;;;;86.50;66.75;;;;;6.20;58.22;101401.84;5075489;28;46108;-59
2022/03/06 07:30:12;;;;;;;;;86.00;66.00;;;;;6.19;58.14;101406.22;5075698;28;45674;-59
2022/03/06 07:32:42;;;;;;;;;85.75;69.75;;;;;6.20;58.35;101409.69;5075740;28;45426;-60
2022/03/06 07:35:08;;;;;;;;;87.00;69.00;;;;;6.22;57.88;101415.78;5075623;28;45414;-60
2022/03/06 07:37:33;;;;;;;;;84.75;66.25;;;;;6.16;57.74;101423.66;5075444;28;46439;-60
2022/03/06 07:39:58;;;;;;;;;87.75;68.25;;;;;6.16;58.40;101426.25;5075634;28;45322;-59
2022/03/06 07:42:24;;;;;;;;;86.25;69.75;;;;;6.20;58.18;101425.34;5074264;28;45512;-59
2022/03/06 07:44:49;;;;;;;;;84.50;65.25;;;;;6.16;58.07;101428.88;5075515;28;45640;-60
2022/03/06 07:47:14;;;;;;;;;83.25;65.00;;;;;6.12;58.01;101435.81;5074198;28;47116;-59
2022/03/06 07:49:40;;;;;;;;;81.25;64.75;;;;;6.11;58.06;101438.47;5075272;28;45421;-59
2022/03/06 07:52:05;;;;;;;;;89.75;70.50;;;;;6.11;58.01;101433.25;5075455;28;45433;-58
2022/03/06 07:54:31;;;;;;;;;89.25;71.00;;;;;6.17;57.76;101443.66;5075526;28;45586;-59
2022/03/06 07:56:56;;;;;;;;;86.00;68.25;;;;;6.08;57.87;101435.88;5075149;28;45999;-58
2022/03/06 07:59:25;;;;;;;;;81.75;66.50;;;;;6.15;57.84;101441.06;5075380;28;45442;-59
2022/03/06 08:01:50;;;;;;;;;89.25;68.25;;;;;6.11;57.55;101449.78;5075163;28;45433;-59
2022/03/06 08:04:16;;;;;;;;;87.00;68.50;;;;;6.10;57.55;101452.38;5075314;28;45468;-59
2022/03/06 08:06:41;;;;;;;;;83.25;67.25;;;;;6.16;57.46;101453.25;5075088;28;45439;-60
2022/03/06 08:09:06;;;;;;;;;86.50;68.50;;;;;6.15;57.32;101456.75;5075021;27;45547;-60
2022/03/06 08:11:32;;;;;;;;;80.75;65.00;;;;;6.07;57.35;101457.59;5075118;28;45466;-60
2022/03/06 08:13:57;;;;;;;;;86.50;68.00;;;;;6.07;58.00;101465.44;5075276;28;45532;-60
2022/03/06 08:16:22;;;;;;;;;90.00;68.00;;;;;6.14;57.87;101459.34;5074849;27;46684;-59
2022/03/06 08:18:48;;;;;;;;;89.25;68.50;;;;;6.15;57.35;101468.91;5075180;28;45349;-59
2022/03/06 08:21:13;;;;;;;;;85.75;67.75;;;;;6.13;57.46;101470.66;5075225;27;45430;-60
2022/03/06 08:23:38;;;;;;;;;89.00;67.75;;;;;6.14;57.79;101462.81;5075012;28;45330;-60
2022/03/06 08:26:04;;;;;;;;;81.50;64.50;;;;;6.27;56.54;101481.06;5076135;28;46142;-59
2022/03/06 08:28:29;;;;;;;;;74.75;58.75;;;;;6.36;57.03;101475.78;5078381;27;45398;-60
2022/03/06 08:30:54;;;;;;;;;87.00;67.50;;;;;6.45;57.23;101481.00;5078651;27;45441;-60
2022/03/06 08:33:20;;;;;;;;;84.50;67.25;;;;;6.43;56.58;101476.66;5077151;28;45598;-60
2022/03/06 08:35:45;;;;;;;;;83.00;64.50;;;;;6.42;56.78;101478.38;5078210;28;46036;-59
2022/03/06 08:38:10;;;;;;;;;79.25;65.00;;;;;6.51;56.44;101477.50;5078242;28;45401;-58
2022/03/06 08:40:36;;;;;;;;;78.25;61.00;;;;;6.61;55.96;101481.81;5078245;28;45365;-60
2022/03/06 08:43:01;;;;;;;;;83.00;64.75;;;;;6.62;55.34;101489.63;5076872;28;45493;-60
2022/03/06 08:45:26;;;;;;;;;79.25;64.00;;;;;6.66;55.24;101485.25;5077829;27;46228;-60
2022/03/06 08:47:52;;;;;;;;;79.50;64.75;;;;;6.71;54.82;101482.63;5077912;27;45449;-60
2022/03/06 08:50:17;;;;;;;;;72.50;59.00;;;;;6.77;54.77;101487.81;5078020;28;45442;-60
2022/03/06 08:52:42;;;;;;;;;76.50;60.75;;;;;6.82;54.89;101486.03;5077918;28;45509;-60
2022/03/06 08:55:09;;;;;;;;;79.00;63.50;;;;;6.85;54.50;101479.06;5077731;28;45472;-59
2022/03/06 08:57:34;;;;;;;;;83.50;66.25;;;;;6.89;53.70;101484.25;5076493;27;45460;-58
2022/03/06 09:00:00;;;;;;;;;74.75;59.50;;;;;6.93;53.88;101489.47;5077921;28;45512;-59
2022/03/06 09:02:25;;;;;;;;;80.50;63.25;;;;;7.00;53.90;101488.53;5077884;27;45365;-59
2022/03/06 09:04:50;;;;;;;;;78.75;63.50;;;;;7.00;53.33;101477.22;5077485;28;46092;-60
2022/03/06 09:07:16;;;;;;;;;81.25;63.50;;;;;7.06;53.18;101496.34;5077786;28;45469;-58
2022/03/06 09:09:41;;;;;;;;;74.50;59.25;;;;;7.14;52.65;101487.59;5077638;28;45443;-60
2022/03/06 09:12:07;;;;;;;;;80.00;60.25;;;;;7.23;51.74;101492.78;5077652;27;45533;-59
2022/03/06 09:14:32;;;;;;;;;75.50;59.00;;;;;7.23;51.72;101490.16;5077412;28;45556;-59
2022/03/06 09:16:58;;;;;;;;;76.75;61.00;;;;;7.30;52.03;101495.31;5077358;27;45364;-60
2022/03/06 09:19:23;;;;;;;;;80.75;61.00;;;;;7.37;51.69;101490.91;5077662;27;45516;-60
2022/03/06 09:21:49;;;;;;;;;72.50;59.75;;;;;7.44;51.04;101489.09;5077450;28;45473;-58
2022/03/06 09:24:14;;;;;;;;;74.00;59.00;;;;;7.45;50.64;101488.22;5077300;28;46209;-59
2022/03/06 09:26:39;;;;;;;;;74.00;59.25;;;;;7.44;50.43;101476.91;5077455;27;45413;-60
2022/03/06 09:29:05;;;;;;;;;75.50;58.50;;;;;7.47;50.74;101489.97;5077297;28;45476;-60
2022/03/06 09:31:31;;;;;;;;;69.25;55.75;;;;;7.43;50.50;101492.59;5077339;28;45532;-61
2022/03/06 09:33:56;;;;;;;;;76.00;57.50;;;;;7.47;50.57;101492.59;5077321;28;46211;-60
2022/03/06 09:36:22;;;;;;;;;74.25;59.50;;;;;7.55;50.23;101495.13;5077187;28;45391;-60
2022/03/06 09:38:47;;;;;;;;;73.25;58.00;;;;;7.62;50.44;101498.56;5076267;28;45444;-60
2022/03/06 09:41:17;;;;;;;;;63.50;52.25;;;;;7.60;48.00;101502.94;5077095;27;45462;-60
2022/03/06 09:43:43;;;;;;;;;68.25;54.00;;;;;7.50;47.84;101503.03;5076974;27;45453;-59
2022/03/06 09:46:09;;;;;;;;;62.75;52.00;;;;;7.55;48.61;101505.59;5077083;28;45414;-60
2022/03/06 09:48:36;;;;;;;;;66.50;54.25;;;;;7.64;48.09;101507.28;5077241;27;45418;-58
2022/03/06 09:51:04;;;;;;;;;61.25;49.25;;;;;7.68;47.52;101517.72;5075665;28;45466;-59
2022/03/06 09:53:29;;;;;;;;;70.75;55.25;;;;;7.70;47.09;101509.81;5075472;27;46472;-60
2022/03/06 09:55:55;;;;;;;;;57.75;49.75;;;;;7.66;46.54;101513.38;5076642;28;45423;-60
2022/03/06 09:58:21;;;;;;;;;66.00;54.25;;;;;7.66;46.70;101516.00;5076842;28;45489;-59
2022/03/06 10:00:46;;;;;;;;;63.25;51.25;;;;;7.67;46.58;101518.56;5076743;28;45392;-60
2022/03/06 10:03:19;;;;;;;;;68.25;53.75;;;;;7.76;46.66;101522.84;5076596;28;46178;-59
2022/03/06 10:05:45;;;;;;;;;59.75;49.25;;;;;7.86;46.63;101515.78;5076438;28;45425;-62
2022/03/06 10:08:15;;;;;;;;;65.00;53.25;;;;;8.13;45.87;101522.50;5075444;28;45466;-59
2022/03/06 10:10:40;;;;;;;;;63.25;51.25;;;;;8.55;45.32;101521.19;5076753;28;45601;-60
2022/03/06 10:13:07;;;;;;;;;58.25;48.25;;;;;8.82;43.37;101516.50;5076688;27;46114;-59
2022/03/06 10:15:52;;;;;;;;;56.75;48.50;;;;;8.88;42.97;101519.03;5076556;28;45872;-60
2022/03/06 10:18:18;;;;;;;;;62.25;51.25;;;;;8.93;43.55;101517.22;5076508;27;45457;-59
2022/03/06 10:20:44;;;;;;;;;54.25;46.25;;;;;8.93;43.37;101516.34;5076742;27;45551;-60
2022/03/06 10:23:24;;;;;;;;;62.50;49.00;;;;;8.72;42.88;101515.75;5074941;27;46517;-60
2022/03/06 10:26:03;;;;;;;;;55.00;47.50;;;;;8.63;43.01;101518.50;5076538;28;45428;-58
2022/03/06 10:28:28;;;;;;;;;48.25;41.00;;;;;8.76;42.59;101520.06;5074827;28;45588;-58
2022/03/06 10:30:53;;;;;;;;;44.00;40.25;;;;;9.02;40.98;101510.97;5076505;28;45552;-57
2022/03/06 10:33:21;;;;;;;;;49.50;42.50;;;;;9.17;40.74;101510.75;5076250;27;45480;-60
2022/03/06 10:35:50;;;;;;;;;43.00;39.00;;;;;9.14;40.58;101517.81;5076394;28;45485;-59
2022/03/06 10:38:27;;;;;;;;;39.00;35.50;;;;;9.04;41.54;101509.19;5076152;28;45498;-57
2022/03/06 10:40:54;;;;;;;;;48.00;40.00;;;;;8.88;40.55;101500.66;5076335;28;45462;-58
2022/03/06 10:43:26;;;;;;;;;41.75;39.25;;;;;8.78;40.44;101504.28;5076200;28;45452;-59
2022/03/06 10:46:08;;;;;;;;;43.00;37.75;;;;;8.76;39.43;101506.97;5075963;27;45444;-58
2022/03/06 10:48:34;;;;;;;;;47.50;40.50;;;;;8.72;39.53;101514.88;5075853;27;45427;-59
2022/03/06 10:51:06;;;;;;;;;39.50;36.00;;;;;8.63;39.29;101515.88;5076072;28;45567;-58
2022/03/06 10:53:32;;;;;;;;;34.75;33.25;;;;;8.53;38.76;101520.34;5076270;27;45918;-58
2022/03/06 10:56:14;;;;;;;;;36.75;31.25;;;;;8.48;38.25;101511.66;5076071;27;45429;-59
2022/03/06 10:58:41;;;;;;;;;40.25;34.75;;;;;8.50;38.64;101519.53;5076291;27;45419;-59
2022/03/06 11:01:07;;;;;;;;;38.50;32.75;;;;;8.45;38.52;101509.09;5076039;27;45512;-58
2022/03/06 11:03:35;;;;;;;;;33.00;32.50;;;;;8.40;38.86;101510.88;5075720;28;46099;-58
2022/03/06 11:06:04;;;;;;;;;38.75;35.25;;;;;8.36;38.15;101504.78;5075986;27;45370;-57
2022/03/06 11:08:31;;;;;;;;;34.50;31.75;;;;;8.40;38.52;101508.25;5076059;27;45420;-58
2022/03/06 11:10:57;;;;;;;;;32.50;30.75;;;;;8.43;37.41;101513.47;5075436;28;45433;-58
2022/03/06 11:13:23;;;;;;;;;37.00;30.50;;;;;8.49;38.31;101507.28;5075643;28;45439;-59